Time;durP1;ratioP1;P1;durP2;ratioP2;P2;SDS_P1;SDS_P2;PMS_P1;PMS_P2;Temp;Humidity;BMP_temperature;BMP_pressure;BME280_temperature;BME280_humidity;BME280_pressure;Samples;Min_cycle;Max_cycle;Signal;HPM_P1;HPM_P2
2024/03/22 00:00:15;;;;;;;11.87;8.60;;;;;;;12.66;58.08;99467.59;6943869;28;20203;-83
2024/03/22 00:03:36;;;;;;;11.77;8.93;;;;;;;12.62;56.36;99415.75;6944313;28;20208;-84
2024/03/22 00:25:08;;;;;;;;;;;;;;;;;;;;;
2024/03/22 00:32:48;;;;;;;14.90;10.80;;;;;;;11.53;58.02;99324.97;6940151;28;20245;-86
2024/03/22 06:37:30;;;;;;;17.63;13.23;;;;;;;11.99;58.28;99215.28;6870855;28;20237;-84
2024/03/22 06:40:54;;;;;;;18.37;13.40;;;;;;;12.39;57.14;99222.44;6868651;28;20221;-86
2024/03/22 06:44:34;;;;;;;18.27;13.33;;;;;;;12.48;56.12;99183.31;6865146;28;20241;-86
2024/03/22 06:47:55;;;;;;;16.80;13.17;;;;;;;12.63;56.75;99221.81;6876020;28;20225;-82
2024/03/22 06:51:17;;;;;;;19.90;13.87;;;;;;;12.96;56.12;99226.22;6885631;28;20684;-83
2024/03/22 06:54:40;;;;;;;16.10;12.30;;;;;;;13.38;54.59;99224.84;6886273;28;20213;-86
2024/03/22 06:58:02;;;;;;;16.00;11.10;;;;;;;14.06;53.55;99224.19;6884782;28;20236;-84
2024/03/22 07:01:22;;;;;;;12.63;11.30;;;;;;;13.80;54.20;99227.84;6884537;28;20205;-83
2024/03/22 07:04:44;;;;;;;13.90;11.07;;;;;;;14.39;53.00;99222.13;6885403;28;20225;-83
2024/03/22 07:08:06;;;;;;;14.03;11.93;;;;;;;13.95;53.57;99189.63;6886474;28;20330;-84
2024/03/22 07:11:30;;;;;;;13.63;11.50;;;;;;;14.78;52.96;99224.53;6884965;28;20219;-83
2024/03/22 07:14:51;;;;;;;12.80;10.50;;;;;;;15.31;51.47;99184.94;6885268;28;20617;-83
2024/03/22 07:18:12;;;;;;;13.87;10.90;;;;;;;15.27;50.58;99178.31;6884214;28;20239;-84
2024/03/22 07:21:33;;;;;;;12.50;9.80;;;;;;;14.97;51.87;99186.34;6885536;28;20206;-84
2024/03/22 07:24:55;;;;;;;10.00;9.00;;;;;;;15.51;51.74;99204.63;6885695;28;20201;-84
2024/03/22 07:28:18;;;;;;;12.50;8.80;;;;;;;15.48;50.92;99156.13;6884262;28;20244;-84
2024/03/22 07:31:39;;;;;;;11.50;9.57;;;;;;;16.61;49.83;99169.56;6884735;28;20296;-83
2024/03/22 07:35:00;;;;;;;11.43;8.77;;;;;;;17.22;48.82;99186.31;6884339;28;20213;-85
2024/03/22 07:38:21;;;;;;;10.90;9.37;;;;;;;17.34;46.86;99114.34;6883844;28;20243;-83
2024/03/22 07:41:42;;;;;;;12.73;9.63;;;;;;;17.23;47.50;99180.59;6884996;28;20205;-84
2024/03/22 07:45:06;;;;;;;11.77;9.20;;;;;;;16.81;48.05;99124.59;6885508;28;20237;-83
2024/03/22 07:48:27;;;;;;;10.83;8.50;;;;;;;17.92;47.23;99168.75;6885142;28;20234;-85
2024/03/22 07:51:49;;;;;;;11.07;7.90;;;;;;;17.81;46.99;99172.38;6885311;28;20209;-83
2024/03/22 07:55:10;;;;;;;9.90;8.10;;;;;;;18.19;46.43;99132.44;6885157;28;20208;-84
2024/03/22 07:58:32;;;;;;;12.80;8.20;;;;;;;19.21;45.28;99175.69;6886304;28;20236;-85
2024/03/22 08:01:55;;;;;;;8.83;7.83;;;;;;;19.26;44.51;99153.06;6890122;28;20209;-84
2024/03/22 08:05:16;;;;;;;9.53;8.53;;;;;;;19.48;44.47;99154.75;6890179;28;20241;-84
2024/03/22 08:08:37;;;;;;;9.60;7.60;;;;;;;19.80;42.08;99053.66;6889464;28;20235;-84
2024/03/22 08:11:58;;;;;;;9.40;8.40;;;;;;;20.59;42.01;99151.34;6891014;28;20244;-83
2024/03/22 08:15:20;;;;;;;9.67;7.57;;;;;;;20.68;41.05;99161.56;6890509;28;20229;-83
2024/03/22 08:18:43;;;;;;;8.93;7.60;;;;;;;20.36;41.30;99157.16;6889380;28;20236;-82
2024/03/22 08:22:05;;;;;;;8.53;7.50;;;;;;;20.92;40.43;99160.16;6891173;28;20238;-83
2024/03/22 08:25:25;;;;;;;7.60;6.70;;;;;;;21.51;39.38;99148.75;6890868;28;20213;-84
2024/03/22 08:28:47;;;;;;;10.37;7.13;;;;;;;21.11;40.16;99155.88;6890260;28;20235;-83
2024/03/22 08:32:09;;;;;;;10.47;8.47;;;;;;;19.92;43.21;99156.38;6891145;28;20241;-85
2024/03/22 08:35:32;;;;;;;8.53;7.47;;;;;;;20.22;42.25;99144.97;6885060;28;20209;-85
2024/03/22 08:38:53;;;;;;;9.27;8.10;;;;;;;20.13;42.14;99089.84;6881455;28;20229;-83
2024/03/22 08:42:15;;;;;;;7.97;7.17;;;;;;;20.47;41.57;99123.31;6877183;28;20208;-83
2024/03/22 08:45:37;;;;;;;8.37;7.53;;;;;;;19.88;42.48;99107.91;6863736;28;20218;-86
2024/03/22 08:48:58;;;;;;;12.47;7.47;;;;;;;20.18;42.80;99132.88;6863085;28;20226;-83
2024/03/22 08:52:22;;;;;;;8.80;7.17;;;;;;;20.57;41.28;99120.66;6863632;28;20201;-83
2024/03/22 08:55:46;;;;;;;8.17;7.33;;;;;;;20.49;41.25;99061.69;6886429;28;20211;-87
2024/03/22 08:59:08;;;;;;;9.00;7.80;;;;;;;20.67;41.00;99053.84;6890403;28;20300;-84
2024/03/22 09:02:28;;;;;;;8.20;7.40;;;;;;;21.19;40.82;99103.31;6890741;28;20269;-83
2024/03/22 09:05:53;;;;;;;8.40;6.83;;;;;;;20.84;40.91;99049.03;6890084;28;20269;-84
2024/03/22 09:09:15;;;;;;;7.97;7.17;;;;;;;21.05;40.90;99110.34;6887008;28;20231;-85
2024/03/22 09:12:36;;;;;;;8.07;6.90;;;;;;;20.92;41.24;99110.00;6890775;28;20850;-84
2024/03/22 09:15:58;;;;;;;8.30;6.87;;;;;;;20.06;42.85;99102.06;6887345;28;20236;-83
2024/03/22 09:19:19;;;;;;;8.57;7.67;;;;;;;19.97;42.81;99090.75;6888662;28;20235;-84
2024/03/22 09:22:40;;;;;;;9.00;7.10;;;;;;;20.18;43.00;99097.28;6888349;28;20214;-84
2024/03/22 09:26:02;;;;;;;11.23;7.70;;;;;;;20.14;41.82;99075.09;6885889;28;20223;-83
2024/03/22 09:29:24;;;;;;;9.77;8.10;;;;;;;20.92;40.63;99099.84;6888719;28;20215;-84
2024/03/22 09:32:45;;;;;;;8.87;7.43;;;;;;;20.64;41.88;99063.72;6863667;28;20206;-84
2024/03/22 09:36:07;;;;;;;9.87;7.30;;;;;;;20.62;40.71;99057.66;6861240;28;20225;-84
2024/03/22 09:39:28;;;;;;;8.60;7.70;;;;;;;21.11;40.15;99076.38;6863030;28;20230;-83
2024/03/22 09:42:51;;;;;;;9.30;6.87;;;;;;;21.30;40.16;99075.66;6863362;28;20645;-83
2024/03/22 09:46:13;;;;;;;8.03;7.23;;;;;;;21.69;39.91;99073.34;6861596;28;20222;-83
2024/03/22 09:49:35;;;;;;;7.27;6.57;;;;;;;21.46;39.41;99060.91;6860060;28;20218;-84
2024/03/22 09:52:57;;;;;;;8.67;7.60;;;;;;;20.42;39.51;99041.91;6857872;28;20590;-83
2024/03/22 09:56:21;;;;;;;9.53;6.80;;;;;;;21.10;38.78;99043.75;6857951;28;20231;-83
2024/03/22 09:59:44;;;;;;;11.17;7.27;;;;;;;21.84;38.14;99040.47;6863046;28;20259;-83
2024/03/22 10:03:06;;;;;;;8.33;7.00;;;;;;;22.69;36.42;99055.09;6863657;28;20235;-81
2024/03/22 10:06:28;;;;;;;7.13;6.43;;;;;;;22.89;34.96;99048.72;6865579;28;20472;-84
2024/03/22 10:09:51;;;;;;;9.63;8.13;;;;;;;23.11;34.96;99047.28;6867437;28;20308;-83
2024/03/22 10:13:13;;;;;;;9.70;6.67;;;;;;;22.97;35.33;99034.41;6867741;28;20193;-85
2024/03/22 10:16:36;;;;;;;8.93;6.50;;;;;;;22.59;35.52;98993.81;6867442;28;20208;-86
2024/03/22 10:19:57;;;;;;;7.73;6.30;;;;;;;23.06;35.35;98999.75;6866534;28;20287;-85
2024/03/22 10:23:18;;;;;;;8.17;6.10;;;;;;;23.29;33.89;98942.16;6862830;28;20207;-83
2024/03/22 10:26:39;;;;;;;7.33;6.10;;;;;;;22.65;34.27;98988.00;6861565;28;20292;-84
2024/03/22 10:30:01;;;;;;;8.43;6.00;;;;;;;23.46;34.19;98996.81;6847644;28;20235;-83
2024/03/22 10:33:25;;;;;;;6.93;6.23;;;;;;;24.02;33.76;98957.63;6847389;28;20207;-84
2024/03/22 10:36:46;;;;;;;7.53;5.93;;;;;;;23.76;33.23;98972.69;6845523;28;20265;-84
2024/03/22 10:40:09;;;;;;;6.93;6.23;;;;;;;22.80;33.80;98971.50;6845778;28;20235;-84
2024/03/22 10:43:31;;;;;;;7.67;5.83;;;;;;;23.29;34.25;98930.31;6845680;28;20214;-85
2024/03/22 10:46:55;;;;;;;7.27;6.40;;;;;;;22.96;33.58;98959.31;6846273;28;20234;-83
2024/03/22 10:50:20;;;;;;;8.43;6.00;;;;;;;22.60;34.54;98978.97;6846102;28;20267;-83
2024/03/22 10:53:42;;;;;;;7.03;5.63;;;;;;;22.57;35.07;98954.78;6845218;28;20215;-84
2024/03/22 10:57:04;;;;;;;7.30;5.73;;;;;;;23.39;33.53;98935.75;6846626;28;20221;-83
2024/03/22 11:00:29;;;;;;;7.87;5.97;;;;;;;22.57;34.11;98949.28;6847964;28;20601;-84
2024/03/22 11:03:51;;;;;;;7.90;5.90;;;;;;;23.24;33.75;98911.09;6844879;28;20219;-83
2024/03/22 11:07:25;;;;;;;6.73;5.90;;;;;;;23.23;33.90;98939.69;6845657;28;20226;-84
2024/03/22 11:10:47;;;;;;;6.47;5.33;;;;;;;23.87;33.36;98932.97;6845552;28;20672;-83
2024/03/22 11:14:09;;;;;;;6.83;5.37;;;;;;;23.83;32.16;98907.09;6843304;28;20292;-83
2024/03/22 11:17:29;;;;;;;9.47;5.77;;;;;;;25.23;30.00;98916.63;6845668;28;20267;-83
2024/03/22 11:20:51;;;;;;;6.93;5.40;;;;;;;24.03;30.90;98911.63;6845464;29;20782;-82
2024/03/22 11:24:13;;;;;;;8.20;5.27;;;;;;;23.12;32.70;98916.09;6846358;28;20249;-84
2024/03/22 11:27:34;;;;;;;6.93;5.50;;;;;;;23.20;31.89;98872.28;6844966;28;20232;-84
2024/03/22 11:30:55;;;;;;;7.60;5.77;;;;;;;23.01;32.32;98901.53;6845808;28;20233;-83
2024/03/22 11:34:16;;;;;;;7.77;4.90;;;;;;;23.52;31.75;98896.59;6852372;28;20308;-84
2024/03/22 11:37:38;;;;;;;6.00;5.20;;;;;;;24.03;31.78;98884.09;6855649;28;20301;-84
2024/03/22 11:41:03;;;;;;;6.47;5.37;;;;;;;23.11;31.96;98834.66;6855448;28;20292;-83
2024/03/22 11:44:25;;;;;;;7.43;5.23;;;;;;;22.95;32.03;98849.63;6853463;28;20269;-84
2024/03/22 11:47:47;;;;;;;8.57;5.53;;;;;;;23.72;31.79;98869.72;6849233;28;20237;-83
2024/03/22 11:51:08;;;;;;;10.17;4.73;;;;;;;23.51;31.79;98853.66;6849717;28;20228;-84
2024/03/22 11:54:30;;;;;;;10.17;5.50;;;;;;;23.84;31.10;98823.34;6850109;28;20204;-83
2024/03/22 11:57:53;;;;;;;6.07;5.47;;;;;;;24.22;29.98;98832.63;6849182;28;20319;-83
2024/03/22 12:01:15;;;;;;;6.40;5.20;;;;;;;24.94;29.73;98857.97;6851106;28;20254;-84
2024/03/22 12:04:37;;;;;;;8.87;5.20;;;;;;;24.93;29.18;98838.94;6854489;28;20215;-83
2024/03/22 12:07:58;;;;;;;5.70;5.20;;;;;;;24.76;29.34;98841.38;6855531;28;20260;-84
2024/03/22 12:11:20;;;;;;;8.43;5.67;;;;;;;25.29;29.82;98838.19;6857569;28;20204;-84
2024/03/22 12:14:43;;;;;;;6.33;5.03;;;;;;;24.46;31.38;98826.03;6855855;28;20236;-84
2024/03/22 12:18:05;;;;;;;8.77;5.20;;;;;;;24.40;29.92;98794.13;6851797;28;20228;-84
2024/03/22 12:21:26;;;;;;;5.57;5.00;;;;;;;24.64;29.34;98816.16;6838331;28;20756;-85
2024/03/22 12:24:47;;;;;;;6.70;5.13;;;;;;;24.99;29.40;98818.44;6838008;28;20216;-84
2024/03/22 12:28:09;;;;;;;6.67;4.70;;;;;;;24.97;28.95;98796.69;6837800;28;20304;-84
2024/03/22 12:31:31;;;;;;;6.33;4.67;;;;;;;24.62;29.32;98794.44;6838952;28;20235;-85
2024/03/22 12:34:52;;;;;;;7.53;5.20;;;;;;;24.53;29.47;98789.81;6837345;28;20223;-85
2024/03/22 12:38:14;;;;;;;5.67;5.07;;;;;;;24.30;29.44;98768.63;6836374;28;20279;-84
2024/03/22 12:41:36;;;;;;;5.93;5.10;;;;;;;23.69;29.67;98765.69;6838510;28;20296;-84
2024/03/22 12:44:57;;;;;;;5.40;4.60;;;;;;;24.83;28.69;98761.88;6836545;28;20213;-83
2024/03/22 12:48:20;;;;;;;6.33;5.03;;;;;;;24.42;29.07;98750.53;6836756;28;20851;-85
2024/03/22 12:51:41;;;;;;;7.20;4.50;;;;;;;24.59;28.88;98720.56;6837893;28;20287;-84
2024/03/22 12:55:03;;;;;;;6.40;4.70;;;;;;;25.06;29.14;98750.75;6838830;28;20217;-85
2024/03/22 12:58:23;;;;;;;5.80;4.97;;;;;;;25.26;28.84;98717.31;6847466;28;20368;-85
2024/03/22 13:01:45;;;;;;;5.13;4.60;;;;;;;25.58;28.34;98722.84;6838162;28;20209;-85
2024/03/22 13:05:09;;;;;;;5.50;4.17;;;;;;;26.00;28.29;98711.56;6838206;28;20274;-84
2024/03/22 13:08:31;;;;;;;5.20;4.57;;;;;;;25.42;28.31;98699.38;6838079;28;20235;-85
2024/03/22 13:11:53;;;;;;;6.43;4.43;;;;;;;25.83;28.77;98691.16;6836499;28;20260;-84
2024/03/22 13:15:14;;;;;;;6.33;4.50;;;;;;;24.77;28.93;98696.88;6836618;28;20220;-84
2024/03/22 13:18:36;;;;;;;4.77;3.83;;;;;;;24.46;29.20;98688.19;6835104;28;20240;-84
2024/03/22 13:21:57;;;;;;;5.00;4.50;;;;;;;24.89;28.65;98680.69;6837563;28;20354;-85
2024/03/22 13:25:19;;;;;;;7.37;4.80;;;;;;;25.26;28.22;98642.78;6836975;28;20252;-84
2024/03/22 13:28:41;;;;;;;7.73;4.53;;;;;;;25.15;28.91;98679.97;6836076;28;20256;-84
2024/03/22 13:32:04;;;;;;;6.57;3.83;;;;;;;25.86;28.41;98652.69;6836103;28;20208;-84
2024/03/22 13:35:26;;;;;;;5.77;4.50;;;;;;;23.84;29.66;98652.59;6836648;28;20225;-84
2024/03/22 13:38:47;;;;;;;5.53;4.90;;;;;;;24.04;29.65;98643.31;6860118;28;20318;-84
2024/03/22 13:42:09;;;;;;;5.50;3.87;;;;;;;25.47;28.18;98641.31;6863993;28;20216;-84
2024/03/22 13:45:31;;;;;;;6.77;4.20;;;;;;;25.18;27.91;98637.94;6862570;28;20214;-84
2024/03/22 13:48:51;;;;;;;6.43;3.97;;;;;;;24.83;28.56;98629.47;6861782;28;20265;-85
2024/03/22 13:52:13;;;;;;;6.00;3.87;;;;;;;25.23;28.15;98634.28;6862977;28;20265;-84
2024/03/22 13:55:35;;;;;;;5.67;4.37;;;;;;;24.36;29.61;98637.91;6861362;28;20249;-85
2024/03/22 13:58:56;;;;;;;5.00;4.40;;;;;;;24.27;30.15;98634.16;6861419;28;20704;-85
2024/03/22 14:02:17;;;;;;;7.43;3.90;;;;;;;23.98;30.08;98619.69;6863690;28;20210;-85
2024/03/22 14:05:38;;;;;;;7.23;4.67;;;;;;;23.57;30.78;98602.03;6862615;28;20290;-84
2024/03/22 14:09:01;;;;;;;6.30;4.30;;;;;;;24.13;30.08;98608.47;6864911;28;20232;-83
2024/03/22 14:12:24;;;;;;;8.33;4.00;;;;;;;24.61;29.92;98605.28;6865723;28;20213;-84
2024/03/22 14:15:45;;;;;;;5.87;4.50;;;;;;;24.60;29.73;98609.16;6864733;28;20699;-85
2024/03/22 14:19:07;;;;;;;5.83;3.90;;;;;;;24.87;29.54;98598.22;6861146;28;20318;-85
2024/03/22 14:22:28;;;;;;;7.13;3.77;;;;;;;25.01;29.80;98598.28;6861385;28;20213;-85
2024/03/22 14:25:50;;;;;;;7.47;4.10;;;;;;;24.39;29.99;98574.75;6860349;28;20222;-85
2024/03/22 14:29:13;;;;;;;6.23;3.87;;;;;;;24.23;31.00;98592.63;6861196;28;20270;-84
2024/03/22 14:32:34;;;;;;;7.03;3.50;;;;;;;23.39;31.68;98595.34;6861272;28;20281;-85
2024/03/22 14:35:56;;;;;;;5.67;4.00;;;;;;;23.59;31.11;98586.84;6859107;28;20268;-85
2024/03/22 14:39:16;;;;;;;5.13;3.93;;;;;;;23.89;31.23;98580.19;6860493;28;20364;-85
2024/03/22 14:42:38;;;;;;;4.33;3.73;;;;;;;23.76;31.86;98581.69;6860782;28;20264;-85
2024/03/22 14:46:01;;;;;;;4.50;3.87;;;;;;;23.73;30.77;98576.75;6860441;28;20211;-83
2024/03/22 14:49:23;;;;;;;6.87;4.27;;;;;;;23.13;31.93;98574.69;6861389;28;20231;-85
2024/03/22 14:52:44;;;;;;;6.63;3.93;;;;;;;23.39;32.44;98564.25;6860669;28;20633;-85
2024/03/22 14:56:08;;;;;;;5.53;3.80;;;;;;;23.55;31.53;98569.28;6859969;28;20348;-85
2024/03/22 14:59:29;;;;;;;6.10;3.90;;;;;;;23.48;31.83;98559.75;6861398;28;20243;-85
2024/03/22 15:02:51;;;;;;;6.13;3.53;;;;;;;22.73;32.61;98569.59;6860459;28;20242;-84
2024/03/22 15:06:12;;;;;;;8.47;4.40;;;;;;;23.44;31.88;98561.44;6859557;28;20253;-85
2024/03/22 15:09:33;;;;;;;4.63;3.53;;;;;;;23.81;31.09;98556.84;6859658;28;20244;-84
2024/03/22 15:12:55;;;;;;;4.70;3.20;;;;;;;23.78;31.75;98494.09;6859790;28;20306;-84
2024/03/22 15:16:16;;;;;;;6.77;3.73;;;;;;;24.02;30.53;98549.13;6859547;28;20275;-85
2024/03/22 15:19:38;;;;;;;3.80;3.33;;;;;;;23.77;30.80;98524.69;6861089;28;20299;-85
2024/03/22 15:23:00;;;;;;;4.30;3.17;;;;;;;23.81;30.26;98545.81;6862107;28;20675;-85
2024/03/22 15:26:21;;;;;;;4.83;3.00;;;;;;;23.77;30.02;98542.00;6859547;28;20259;-85
2024/03/22 15:29:43;;;;;;;3.40;2.33;;;;;;;23.25;28.71;98533.88;6860258;28;20574;-85
2024/03/22 15:33:05;;;;;;;3.00;2.50;;;;;;;22.91;27.86;98530.41;6860079;28;20256;-85
2024/03/22 15:36:28;;;;;;;4.90;2.40;;;;;;;23.23;28.34;98533.34;6854818;28;20269;-84
2024/03/22 15:39:49;;;;;;;2.20;2.00;;;;;;;23.05;27.46;98522.25;6858338;28;20322;-85
2024/03/22 15:43:11;;;;;;;2.93;2.40;;;;;;;23.13;28.22;98519.69;6863690;28;20238;-85
2024/03/22 15:46:32;;;;;;;2.73;1.97;;;;;;;22.71;28.62;98519.59;6859580;28;20201;-85
2024/03/22 15:49:53;;;;;;;3.07;2.00;;;;;;;22.31;29.02;98514.41;6861375;28;20317;-85
2024/03/22 15:53:16;;;;;;;3.40;2.37;;;;;;;22.76;29.56;98503.03;6860505;28;20217;-85
2024/03/22 15:56:37;;;;;;;3.00;2.30;;;;;;;22.96;28.56;98491.03;6859774;28;20272;-85
2024/03/22 15:59:59;;;;;;;2.20;2.00;;;;;;;22.82;28.54;98509.28;6860095;28;20698;-85
2024/03/22 16:03:19;;;;;;;4.30;2.50;;;;;;;23.05;28.81;98484.59;6859400;28;20358;-85
2024/03/22 16:06:41;;;;;;;4.43;2.03;;;;;;;23.31;27.95;98507.94;6859207;28;20224;-85
2024/03/22 16:10:03;;;;;;;2.40;2.03;;;;;;;23.17;28.01;98507.03;6860229;28;20348;-85
2024/03/22 16:13:25;;;;;;;4.40;2.20;;;;;;;22.64;28.75;98461.41;6859345;28;20739;-85
2024/03/22 16:16:45;;;;;;;3.07;2.30;;;;;;;22.58;29.62;98494.69;6858665;28;20319;-84
2024/03/22 16:20:09;;;;;;;4.50;2.17;;;;;;;22.93;28.49;98494.34;6861122;28;20236;-84
2024/03/22 16:23:30;;;;;;;2.80;2.20;;;;;;;22.59;29.36;98483.44;6863942;28;20215;-85
2024/03/22 16:26:53;;;;;;;2.77;2.00;;;;;;;22.87;28.84;98482.59;6864432;28;20264;-85
2024/03/22 16:30:16;;;;;;;2.47;2.13;;;;;;;22.83;28.53;98476.03;6864783;28;20205;-85
2024/03/22 16:33:37;;;;;;;3.80;2.10;;;;;;;22.95;28.34;98481.13;6864905;28;20575;-84
2024/03/22 16:36:59;;;;;;;2.40;2.10;;;;;;;23.02;28.43;98471.41;6863469;28;20794;-85
2024/03/22 16:40:21;;;;;;;2.87;2.20;;;;;;;23.04;28.71;98458.19;6863904;28;20322;-85
2024/03/22 16:43:44;;;;;;;2.37;2.17;;;;;;;23.10;28.16;98450.69;6864313;28;20213;-85
2024/03/22 16:47:09;;;;;;;3.50;2.13;;;;;;;23.18;29.18;98453.63;6864280;28;20721;-85
2024/03/22 16:50:30;;;;;;;4.67;2.40;;;;;;;23.08;28.51;98456.47;6870357;28;20246;-85
2024/03/22 16:53:52;;;;;;;3.63;2.20;;;;;;;22.79;29.28;98450.25;6863450;28;20309;-85
2024/03/22 16:57:12;;;;;;;5.93;2.50;;;;;;;22.97;29.18;98459.66;6862985;28;20316;-85
2024/03/22 17:00:35;;;;;;;5.13;2.63;;;;;;;22.80;28.88;98451.88;6863626;28;20709;-85
2024/03/22 17:03:56;;;;;;;4.07;2.40;;;;;;;22.92;29.26;98452.28;6863404;28;20747;-85
2024/03/22 17:07:17;;;;;;;2.53;2.23;;;;;;;22.82;29.53;98457.06;6862331;28;20279;-85
2024/03/22 17:10:41;;;;;;;3.77;2.70;;;;;;;22.51;29.90;98444.75;6863485;28;20295;-84
2024/03/22 17:14:03;;;;;;;3.80;2.57;;;;;;;21.95;30.45;98457.34;6863271;28;20253;-85
2024/03/22 17:17:26;;;;;;;7.77;3.00;;;;;;;22.21;30.83;98447.78;6863806;28;20984;-85
2024/03/22 17:20:46;;;;;;;3.03;2.73;;;;;;;22.21;31.16;98459.59;6864427;28;20296;-85
2024/03/22 17:24:08;;;;;;;4.50;3.17;;;;;;;22.12;31.44;98449.53;6862857;28;20584;-85
2024/03/22 17:27:30;;;;;;;5.27;3.00;;;;;;;21.78;31.27;98383.63;6862247;28;20234;-85
2024/03/22 17:30:50;;;;;;;3.87;3.40;;;;;;;22.08;32.93;98446.50;6862640;28;20677;-83
2024/03/22 17:34:13;;;;;;;4.50;3.30;;;;;;;22.10;33.24;98447.06;6862259;28;20228;-85
2024/03/22 17:37:33;;;;;;;7.70;3.37;;;;;;;21.90;33.83;98436.22;6855280;28;20694;-85
2024/03/22 17:40:55;;;;;;;4.80;3.13;;;;;;;21.82;33.93;98436.84;6862453;28;20226;-85
2024/03/22 17:44:15;;;;;;;6.50;3.20;;;;;;;21.40;34.68;98409.13;6863434;28;20732;-85
2024/03/22 17:47:37;;;;;;;4.83;3.13;;;;;;;21.41;34.51;98438.19;6861732;28;20284;-85
2024/03/22 17:51:00;;;;;;;5.20;3.10;;;;;;;21.34;34.96;98429.44;6862943;28;20542;-85
2024/03/22 17:54:22;;;;;;;6.93;3.33;;;;;;;20.99;35.78;98423.31;6862995;28;20258;-84
2024/03/22 17:57:45;;;;;;;5.63;3.67;;;;;;;21.08;36.22;98418.91;6861769;28;20628;-85
2024/03/22 18:01:07;;;;;;;6.57;4.43;;;;;;;21.08;36.46;98411.47;6862398;28;20229;-85
2024/03/22 18:04:28;;;;;;;10.93;5.47;;;;;;;20.72;37.09;98420.13;6862828;28;20217;-85
2024/03/22 18:07:50;;;;;;;7.73;4.90;;;;;;;20.57;37.93;98424.81;6861950;28;20647;-83
2024/03/22 18:11:13;;;;;;;6.67;4.67;;;;;;;20.25;38.79;98422.44;6862380;28;20216;-86
2024/03/22 18:14:34;;;;;;;8.23;4.30;;;;;;;20.07;38.80;98420.25;6861889;28;21004;-86
2024/03/22 18:17:55;;;;;;;4.00;3.60;;;;;;;20.19;38.34;98418.06;6861523;28;20393;-85
2024/03/22 18:21:16;;;;;;;6.17;4.23;;;;;;;20.10;39.06;98413.41;6862492;28;20225;-85
2024/03/22 18:24:40;;;;;;;4.93;4.40;;;;;;;19.69;39.82;98419.97;6861740;28;20206;-85
2024/03/22 18:28:00;;;;;;;6.27;4.10;;;;;;;19.97;39.04;98422.13;6861334;28;20718;-85
2024/03/22 18:31:22;;;;;;;6.30;4.23;;;;;;;19.85;39.58;98427.06;6862208;28;20697;-85
2024/03/22 18:34:44;;;;;;;8.73;4.60;;;;;;;19.82;39.79;98436.63;6864262;28;20221;-85
2024/03/22 18:38:05;;;;;;;7.60;5.23;;;;;;;19.50;40.22;98421.56;6863608;28;20233;-85
2024/03/22 18:41:28;;;;;;;7.53;4.90;;;;;;;18.68;42.11;98428.91;6863933;28;20221;-84
2024/03/22 18:44:50;;;;;;;9.67;5.53;;;;;;;19.01;41.06;98428.50;6852980;28;20217;-84
2024/03/22 18:48:10;;;;;;;9.90;4.40;;;;;;;19.08;41.09;98418.97;6860868;28;20630;-84
2024/03/22 18:51:32;;;;;;;7.93;4.50;;;;;;;18.90;41.23;98418.63;6861305;28;20205;-84
2024/03/22 18:54:56;;;;;;;7.40;5.77;;;;;;;18.84;41.45;98425.16;6862622;28;20340;-85
2024/03/22 18:58:19;;;;;;;10.60;6.47;;;;;;;18.67;41.57;98413.59;6863447;28;20221;-85
2024/03/22 19:01:40;;;;;;;8.70;5.83;;;;;;;18.80;41.08;98413.94;6861601;28;20285;-84
2024/03/22 19:05:02;;;;;;;6.87;4.73;;;;;;;18.55;41.60;98410.28;6861604;28;20223;-85
2024/03/22 19:08:24;;;;;;;6.37;5.00;;;;;;;18.57;41.49;98416.31;6860657;28;20283;-84
2024/03/22 19:11:46;;;;;;;12.90;5.50;;;;;;;17.81;42.87;98406.75;6861539;28;20212;-85
2024/03/22 19:15:09;;;;;;;7.30;5.00;;;;;;;17.85;43.19;98402.44;6860851;28;20346;-85
2024/03/22 19:18:31;;;;;;;5.77;4.30;;;;;;;17.77;43.18;98407.53;6833761;28;20593;-85
2024/03/22 19:21:51;;;;;;;6.17;3.90;;;;;;;17.49;43.36;98399.66;6834175;28;20225;-85
2024/03/22 19:25:13;;;;;;;5.10;3.70;;;;;;;17.50;43.00;98393.13;6834994;28;20707;-85
2024/03/22 19:28:35;;;;;;;4.57;3.53;;;;;;;17.71;42.31;98401.25;6833961;28;20237;-85
2024/03/22 19:31:58;;;;;;;6.43;4.40;;;;;;;17.47;43.26;98391.75;6834170;28;20206;-85
2024/03/22 19:35:20;;;;;;;6.63;4.50;;;;;;;17.05;44.08;98354.53;6853576;28;20216;-84
2024/03/22 19:38:41;;;;;;;8.97;4.70;;;;;;;16.62;44.61;98346.41;6855624;28;20301;-85
2024/03/22 19:42:02;;;;;;;5.87;4.77;;;;;;;16.32;45.51;98362.31;6862268;28;20224;-85
2024/03/22 19:45:24;;;;;;;7.03;4.40;;;;;;;16.66;45.27;98381.06;6861078;28;20213;-85
2024/03/22 19:48:47;;;;;;;7.90;4.30;;;;;;;16.53;45.04;98377.88;6853166;28;20288;-85
2024/03/22 19:52:08;;;;;;;9.23;5.37;;;;;;;16.53;45.66;98380.59;6834015;28;20361;-84
2024/03/22 19:55:29;;;;;;;7.37;4.53;;;;;;;16.79;44.80;98372.50;6838784;28;20341;-84
2024/03/22 19:58:51;;;;;;;6.43;4.80;;;;;;;16.43;45.79;98372.31;6838540;28;20365;-85
2024/03/22 20:02:12;;;;;;;7.77;4.50;;;;;;;16.52;45.59;98373.53;6839868;28;20253;-85
2024/03/22 20:05:34;;;;;;;4.73;4.20;;;;;;;16.28;45.36;98372.09;6858547;28;20236;-85
2024/03/22 20:08:56;;;;;;;6.57;4.07;;;;;;;16.23;45.44;98355.69;6864972;28;20231;-85
2024/03/22 20:12:16;;;;;;;6.77;3.90;;;;;;;16.17;45.10;98296.88;6866615;28;20297;-84
2024/03/22 20:15:38;;;;;;;7.07;4.60;;;;;;;16.44;44.93;98361.19;6842587;28;20279;-85
2024/03/22 20:18:59;;;;;;;6.43;4.60;;;;;;;16.12;45.22;98345.75;6838020;28;20262;-85
2024/03/22 20:22:21;;;;;;;7.60;5.20;;;;;;;15.99;45.63;98363.22;6838512;28;20232;-85
2024/03/22 20:25:44;;;;;;;8.70;5.53;;;;;;;15.81;46.47;98365.44;6860844;28;20209;-85
2024/03/22 20:29:06;;;;;;;9.07;5.50;;;;;;;15.95;46.06;98362.09;6866940;28;20330;-82
2024/03/22 20:32:27;;;;;;;7.43;5.17;;;;;;;15.58;46.50;98368.31;6867804;28;20214;-82
2024/03/22 20:35:49;;;;;;;7.03;5.00;;;;;;;15.89;46.01;98349.50;6866814;28;20216;-82
2024/03/22 20:39:14;;;;;;;9.10;5.40;;;;;;;15.97;46.17;98356.41;6866688;28;20312;-82
2024/03/22 20:42:37;;;;;;;8.37;5.00;;;;;;;15.98;45.83;98339.03;6867028;28;20343;-83
2024/03/22 20:46:01;;;;;;;5.43;4.73;;;;;;;16.11;45.36;98342.19;6866089;28;20203;-83
2024/03/22 20:49:25;;;;;;;6.03;4.47;;;;;;;15.46;46.65;98341.22;6866130;28;20677;-83
2024/03/22 20:52:49;;;;;;;8.40;4.50;;;;;;;14.84;48.60;98314.31;6866523;28;20218;-83
2024/03/22 20:56:13;;;;;;;6.23;4.70;;;;;;;15.16;47.59;98331.72;6866568;28;20264;-83
2024/03/22 20:59:36;;;;;;;6.03;4.37;;;;;;;15.11;47.54;98334.34;6867007;28;20321;-83
2024/03/22 21:03:01;;;;;;;7.57;4.67;;;;;;;15.22;47.77;98317.97;6867349;28;20300;-83
2024/03/22 21:06:25;;;;;;;6.97;4.90;;;;;;;15.09;47.79;98315.56;6866199;28;20350;-83
2024/03/22 21:09:48;;;;;;;8.77;4.73;;;;;;;15.09;47.93;98310.16;6867285;28;20348;-84
2024/03/22 21:13:12;;;;;;;5.10;4.17;;;;;;;15.32;46.94;98309.16;6867357;28;20674;-83
2024/03/22 21:16:36;;;;;;;7.37;4.20;;;;;;;15.40;46.93;98312.31;6866695;28;20206;-83
2024/03/22 21:20:00;;;;;;;6.83;4.70;;;;;;;15.20;46.84;98300.28;6865426;28;20348;-83
2024/03/22 21:23:24;;;;;;;4.93;4.47;;;;;;;15.15;47.26;98284.72;6865780;28;20203;-83
2024/03/22 21:26:47;;;;;;;6.10;4.27;;;;;;;15.25;47.36;98295.75;6864999;28;20234;-83
2024/03/22 21:30:11;;;;;;;6.73;4.70;;;;;;;14.79;48.15;98289.78;6866095;28;20205;-82
2024/03/22 21:33:36;;;;;;;6.60;4.97;;;;;;;14.78;48.63;98296.28;6864450;28;20725;-83
2024/03/22 21:37:00;;;;;;;5.30;4.80;;;;;;;15.05;47.71;98287.25;6848397;28;20706;-83
2024/03/22 21:40:24;;;;;;;4.90;4.40;;;;;;;15.05;47.58;98292.69;6850295;28;20289;-83
2024/03/22 21:43:48;;;;;;;5.20;4.70;;;;;;;14.61;49.06;98290.81;6865041;28;20808;-83
2024/03/22 21:47:12;;;;;;;5.40;4.43;;;;;;;14.48;49.56;98293.84;6871986;28;20601;-83
2024/03/22 21:50:35;;;;;;;6.53;3.77;;;;;;;14.40;49.42;98287.97;6872125;28;20274;-83
2024/03/22 21:53:59;;;;;;;4.67;4.10;;;;;;;14.47;49.44;98291.38;6865648;28;20209;-83
2024/03/22 21:57:24;;;;;;;4.97;4.37;;;;;;;14.28;49.38;98285.28;6866603;28;20241;-84
2024/03/22 22:00:47;;;;;;;8.73;4.50;;;;;;;14.05;50.04;98285.31;6867370;28;20234;-84
2024/03/22 22:04:19;;;;;;;4.37;3.97;;;;;;;14.25;49.84;98266.81;6865063;28;20224;-84
2024/03/22 22:07:42;;;;;;;5.03;4.23;;;;;;;14.61;48.80;98274.53;6865323;28;20261;-84
2024/03/22 22:11:06;;;;;;;4.83;4.03;;;;;;;14.21;49.82;98267.53;6845749;28;20674;-84
2024/03/22 22:14:29;;;;;;;6.50;4.13;;;;;;;14.36;49.23;98271.38;6839565;28;20215;-84